Time;durP1;ratioP1;P1;durP2;ratioP2;P2;SDS_P1;SDS_P2;PMS_P1;PMS_P2;Temp;Humidity;BMP_temperature;BMP_pressure;BME280_temperature;BME280_humidity;BME280_pressure;Samples;Min_cycle;Max_cycle;Signal;HPM_P1;HPM_P2
2022/11/10 00:00:29;;;;;;;11.75;1.85;;;10.30;99.90;;;;;;5065720;28;20049;-65
2022/11/10 00:03:00;;;;;;;10.10;3.03;;;10.30;99.90;;;;;;5062976;28;20045;-65
2022/11/10 00:05:26;;;;;;;6.70;2.38;;;10.20;99.90;;;;;;5060687;28;20071;-65
2022/11/10 00:07:52;;;;;;;10.35;1.90;;;10.20;99.90;;;;;;5057657;28;20056;-66
2022/11/10 00:10:18;;;;;;;9.70;2.40;;;10.10;99.90;;;;;;5047799;28;20268;-65
2022/11/10 00:12:43;;;;;;;12.57;1.38;;;10.00;99.90;;;;;;5065578;28;20082;-66
2022/11/10 00:17:55;;;;;;;8.73;1.60;;;9.90;99.90;;;;;;5046604;28;20045;-66
2022/11/10 00:20:21;;;;;;;9.00;1.75;;;9.90;99.90;;;;;;5064990;28;20418;-65
2022/11/10 00:22:47;;;;;;;10.52;1.73;;;9.80;99.90;;;;;;5047536;28;20161;-65
2022/11/10 00:25:13;;;;;;;13.02;1.65;;;9.80;99.90;;;;;;5046539;28;20710;-65
2022/11/10 00:27:38;;;;;;;8.93;1.80;;;9.70;99.90;;;;;;5065423;28;20036;-65
2022/11/10 00:30:05;;;;;;;12.32;1.77;;;9.60;99.90;;;;;;5046539;28;20128;-65
2022/11/10 00:32:31;;;;;;;14.57;1.90;;;9.60;99.90;;;;;;5065203;28;20036;-66
2022/11/10 00:34:57;;;;;;;7.13;1.52;;;9.50;99.90;;;;;;5063572;28;20040;-66
2022/11/10 00:37:23;;;;;;;12.15;1.90;;;9.50;99.90;;;;;;5043607;28;20490;-66
2022/11/10 00:39:48;;;;;;;9.13;1.85;;;9.50;99.90;;;;;;5058842;28;20075;-65
2022/11/10 00:42:14;;;;;;;11.43;2.08;;;9.50;99.90;;;;;;5063233;28;20048;-66
2022/11/10 00:44:40;;;;;;;7.68;1.67;;;9.40;99.90;;;;;;5064448;28;20057;-66
2022/11/10 00:47:06;;;;;;;18.02;2.17;;;9.40;99.90;;;;;;5062410;28;20079;-65
2022/11/10 00:49:32;;;;;;;12.68;1.90;;;9.30;99.90;;;;;;5064401;28;20193;-66
2022/11/10 00:51:58;;;;;;;8.48;1.92;;;9.30;99.90;;;;;;5063788;28;20052;-66
2022/11/10 00:54:23;;;;;;;15.82;1.80;;;9.30;99.90;;;;;;5045687;28;20084;-66
2022/11/10 00:56:49;;;;;;;17.30;2.22;;;9.20;99.90;;;;;;5044750;28;20126;-66
2022/11/10 00:59:15;;;;;;;13.98;2.00;;;9.20;99.90;;;;;;5063925;28;20089;-66
2022/11/10 01:01:40;;;;;;;20.40;2.35;;;9.20;99.90;;;;;;5054391;28;20099;-66
2022/11/10 01:04:07;;;;;;;13.95;2.13;;;9.20;99.90;;;;;;5062609;28;20036;-66
2022/11/10 01:06:32;;;;;;;16.38;2.10;;;9.20;99.90;;;;;;5063792;28;20400;-66
2022/11/10 01:08:58;;;;;;;13.43;2.30;;;9.20;99.90;;;;;;5045097;28;20415;-66
2022/11/10 01:11:26;;;;;;;16.45;2.50;;;9.20;99.90;;;;;;5061469;28;20098;-66
2022/11/10 01:13:54;;;;;;;14.82;2.63;;;9.30;99.90;;;;;;5020464;28;20084;-66
2022/11/10 01:16:26;;;;;;;18.05;2.88;;;9.30;99.90;;;;;;5063754;28;20528;-66
2022/11/10 01:18:57;;;;;;;10.45;2.28;;;9.30;99.90;;;;;;5063858;28;20072;-65
2022/11/10 01:21:24;;;;;;;21.17;3.08;;;9.30;99.90;;;;;;5062600;28;20048;-66
2022/11/10 01:23:50;;;;;;;12.10;2.60;;;9.30;99.90;;;;;;5045903;28;20386;-66
2022/11/10 01:26:16;;;;;;;12.88;2.30;;;9.30;99.90;;;;;;5062905;28;20044;-66
2022/11/10 01:28:42;;;;;;;11.00;2.10;;;9.30;99.90;;;;;;5048481;28;20056;-66
2022/11/10 01:31:13;;;;;;;18.02;2.28;;;9.30;99.90;;;;;;5067938;28;20053;-66
2022/11/10 01:33:39;;;;;;;7.90;2.30;;;9.30;99.90;;;;;;5051294;28;20044;-66
2022/11/10 01:36:06;;;;;;;14.77;2.95;;;9.30;99.90;;;;;;5050551;28;20055;-66
2022/11/10 01:38:35;;;;;;;13.13;2.70;;;9.40;99.90;;;;;;5047836;28;20383;-65
2022/11/10 01:41:02;;;;;;;14.43;2.83;;;9.30;99.90;;;;;;5068776;28;20059;-66
2022/11/10 01:43:28;;;;;;;20.55;4.15;;;9.30;99.90;;;;;;5066788;28;20092;-66
2022/11/10 01:46:19;;;;;;;12.13;2.95;;;9.30;99.90;;;;;;5051067;28;20384;-65
2022/11/10 01:48:50;;;;;;;17.25;2.30;;;9.30;99.90;;;;;;5033619;28;20521;-66
2022/11/10 01:51:34;;;;;;;22.73;3.03;;;9.30;99.90;;;;;;5068984;28;20041;-66
2022/11/10 01:54:07;;;;;;;16.50;3.20;;;9.20;99.90;;;;;;5056420;28;20123;-66
2022/11/10 01:56:40;;;;;;;15.45;2.80;;;9.20;99.90;;;;;;5050766;28;20044;-65
2022/11/10 01:59:12;;;;;;;18.85;3.33;;;9.20;99.90;;;;;;5068714;28;20041;-66
2022/11/10 02:01:38;;;;;;;14.77;3.92;;;9.20;99.90;;;;;;5050048;28;20040;-66
2022/11/10 02:04:12;;;;;;;11.43;3.75;;;9.10;99.90;;;;;;5060863;28;20048;-66
2022/11/10 02:06:40;;;;;;;20.20;3.00;;;9.00;99.90;;;;;;5050682;28;20517;-65
2022/11/10 02:09:06;;;;;;;16.65;2.92;;;9.10;99.90;;;;;;5068058;28;20395;-65
2022/11/10 02:11:32;;;;;;;16.08;3.10;;;9.10;99.90;;;;;;5065627;28;20036;-65
2022/11/10 02:13:59;;;;;;;19.52;3.03;;;9.10;99.90;;;;;;5062446;28;20083;-66
2022/11/10 02:16:26;;;;;;;14.95;2.95;;;9.10;99.90;;;;;;5050334;28;20506;-66
2022/11/10 02:18:52;;;;;;;18.40;3.50;;;9.10;99.90;;;;;;5049813;28;20041;-65
2022/11/10 02:21:21;;;;;;;17.50;3.85;;;9.10;99.90;;;;;;5068117;28;20032;-66
2022/11/10 02:23:49;;;;;;;15.65;3.55;;;9.10;99.90;;;;;;5068306;28;20044;-65
2022/11/10 02:26:23;;;;;;;21.17;3.67;;;9.10;99.90;;;;;;5066833;28;20044;-66
2022/11/10 02:28:50;;;;;;;20.75;4.13;;;9.20;99.90;;;;;;5065265;28;20494;-65
2022/11/10 02:31:16;;;;;;;19.85;3.78;;;9.20;99.90;;;;;;5066974;28;20050;-66
2022/11/10 02:33:42;;;;;;;23.13;3.83;;;9.20;99.90;;;;;;5068574;28;20119;-66
2022/11/10 02:36:08;;;;;;;19.27;3.90;;;9.20;99.90;;;;;;5049371;28;20497;-66
2022/11/10 02:38:35;;;;;;;13.63;2.83;;;9.20;99.90;;;;;;5049825;28;20041;-66
2022/11/10 02:41:00;;;;;;;18.00;3.90;;;9.20;99.90;;;;;;5067290;28;20041;-66
2022/11/10 02:43:27;;;;;;;22.20;5.70;;;9.20;99.90;;;;;;5054397;28;20517;-66
2022/11/10 02:45:52;;;;;;;26.48;4.30;;;9.20;99.90;;;;;;5067876;28;20083;-66
2022/11/10 02:48:19;;;;;;;14.80;3.55;;;9.20;99.90;;;;;;5066641;28;20498;-65
2022/11/10 02:50:44;;;;;;;16.75;2.85;;;9.10;99.90;;;;;;5068164;28;20048;-66
2022/11/10 02:53:10;;;;;;;17.65;4.10;;;9.10;99.90;;;;;;5067486;28;20536;-66
2022/11/10 02:55:36;;;;;;;21.08;3.80;;;9.10;99.90;;;;;;5061072;28;20060;-66
2022/11/10 02:58:02;;;;;;;19.67;3.63;;;9.10;99.90;;;;;;5066907;28;20036;-66
2022/11/10 03:00:28;;;;;;;20.10;3.95;;;9.10;99.90;;;;;;5067408;28;20040;-66
2022/11/10 03:03:00;;;;;;;15.80;3.45;;;9.00;99.90;;;;;;5063914;28;20067;-66
2022/11/10 03:05:30;;;;;;;13.07;3.03;;;9.00;99.90;;;;;;5066070;28;20404;-65
2022/11/10 03:07:59;;;;;;;19.13;4.25;;;9.10;99.90;;;;;;5047899;28;20090;-65
2022/11/10 03:10:25;;;;;;;20.10;4.47;;;9.00;99.90;;;;;;5058513;28;20048;-66
2022/11/10 03:12:56;;;;;;;22.77;3.58;;;9.10;99.90;;;;;;5067079;28;20084;-66
2022/11/10 03:15:23;;;;;;;21.30;4.05;;;9.10;99.90;;;;;;5066941;28;20048;-65
2022/11/10 03:17:50;;;;;;;14.73;2.90;;;9.10;99.90;;;;;;5067106;28;20044;-66
2022/11/10 03:20:18;;;;;;;23.13;4.07;;;9.20;99.90;;;;;;5066906;28;20127;-66
2022/11/10 03:22:45;;;;;;;14.90;4.15;;;9.20;99.90;;;;;;5067117;28;20041;-66
2022/11/10 03:25:11;;;;;;;23.45;4.13;;;9.10;99.90;;;;;;5066574;28;20044;-65
2022/11/10 03:27:38;;;;;;;17.65;3.40;;;9.10;99.90;;;;;;5066313;28;20325;-66
2022/11/10 03:30:05;;;;;;;19.80;4.03;;;9.10;99.90;;;;;;5067564;28;20697;-66
2022/11/10 03:32:31;;;;;;;23.63;4.43;;;9.10;99.90;;;;;;5066378;28;20044;-65
2022/11/10 03:34:57;;;;;;;21.00;3.60;;;9.10;99.90;;;;;;5063175;28;20501;-66
2022/11/10 03:37:23;;;;;;;20.52;3.60;;;9.00;99.90;;;;;;5066056;28;20041;-66
2022/11/10 03:39:49;;;;;;;18.25;3.88;;;9.10;99.90;;;;;;5066079;28;20182;-66
2022/11/10 03:42:15;;;;;;;13.55;3.30;;;9.10;99.90;;;;;;5066918;28;20124;-65
2022/11/10 03:44:41;;;;;;;12.73;3.45;;;9.00;99.90;;;;;;5059450;28;20138;-66
2022/11/10 03:47:07;;;;;;;21.75;3.88;;;9.00;99.90;;;;;;5066877;28;20040;-66
2022/11/10 03:49:32;;;;;;;18.85;3.88;;;9.00;99.90;;;;;;5064839;28;20097;-66
2022/11/10 03:51:58;;;;;;;19.45;3.35;;;9.00;99.90;;;;;;5066172;28;20513;-66
2022/11/10 03:54:24;;;;;;;18.92;3.50;;;9.00;99.90;;;;;;5065651;28;20116;-66
2022/11/10 03:56:50;;;;;;;20.10;4.20;;;9.00;99.90;;;;;;5064538;28;20051;-66
2022/11/10 03:59:15;;;;;;;15.38;3.40;;;9.00;99.90;;;;;;5066350;28;20048;-66
2022/11/10 04:01:41;;;;;;;19.38;3.55;;;9.10;99.90;;;;;;5064370;28;20134;-65
2022/11/10 04:08:57;;;;;;;20.17;3.67;;;9.00;99.90;;;;;;5066452;28;20568;-66
2022/11/10 04:09:40;;;;;;;16.23;3.15;;;9.00;99.90;;;;;;5066056;28;20554;-66
2022/11/10 04:17:34;;;;;;;14.50;2.63;;;8.90;99.90;;;;;;5065152;28;20053;-66
2022/11/10 04:20:02;;;;;;;14.52;3.05;;;8.90;99.90;;;;;;5064156;28;20040;-66
2022/11/10 04:25:13;;;;;;;18.35;3.60;;;9.00;99.90;;;;;;5066128;28;20064;-65
2022/11/10 04:27:38;;;;;;;18.50;3.58;;;9.00;99.90;;;;;;5064165;28;20123;-66
2022/11/10 04:30:05;;;;;;;17.58;3.20;;;9.00;99.90;;;;;;5065882;28;20128;-65
2022/11/10 04:32:30;;;;;;;19.42;4.57;;;9.00;99.90;;;;;;5046823;28;20070;-66
2022/11/10 04:34:56;;;;;;;22.67;4.07;;;9.00;99.90;;;;;;5064977;28;20040;-66
2022/11/10 04:37:22;;;;;;;18.40;3.45;;;9.00;99.90;;;;;;5064908;28;20093;-66
2022/11/10 04:39:47;;;;;;;17.33;3.17;;;9.00;99.90;;;;;;5065723;28;20041;-66
2022/11/10 04:42:13;;;;;;;22.05;3.60;;;9.00;99.90;;;;;;5065555;28;20047;-66
2022/11/10 04:44:39;;;;;;;22.30;5.10;;;9.00;99.90;;;;;;5064992;28;20060;-65
2022/11/10 04:47:04;;;;;;;19.90;3.65;;;9.00;99.90;;;;;;5043117;28;20053;-65
2022/11/10 04:49:30;;;;;;;17.35;3.55;;;9.00;99.90;;;;;;5046528;28;20098;-66
2022/11/10 04:51:56;;;;;;;20.23;4.13;;;9.00;99.90;;;;;;5047485;28;20048;-66
2022/11/10 04:54:22;;;;;;;20.42;4.00;;;9.00;99.90;;;;;;5047511;28;20052;-65
2022/11/10 04:56:47;;;;;;;18.25;3.95;;;9.00;99.90;;;;;;5065048;28;20036;-66
2022/11/10 04:59:13;;;;;;;20.00;3.90;;;9.00;99.90;;;;;;5065296;28;20094;-65
2022/11/10 05:01:39;;;;;;;22.17;4.28;;;9.00;99.90;;;;;;5047255;28;20045;-66
2022/11/10 05:04:05;;;;;;;25.30;4.38;;;9.00;99.90;;;;;;5065718;28;20068;-66
2022/11/10 05:06:31;;;;;;;25.95;4.85;;;9.00;99.90;;;;;;5046275;28;20490;-65
2022/11/10 05:08:56;;;;;;;25.20;5.07;;;9.10;99.90;;;;;;5047663;28;20048;-66
2022/11/10 05:11:22;;;;;;;16.60;4.47;;;9.10;99.90;;;;;;5062640;28;20474;-66
2022/11/10 05:13:48;;;;;;;28.88;4.75;;;9.10;99.90;;;;;;5047337;28;20502;-66
2022/11/10 05:16:16;;;;;;;30.90;5.40;;;9.20;99.90;;;;;;5046266;28;20052;-66
2022/11/10 05:18:41;;;;;;;28.13;5.32;;;9.20;99.90;;;;;;5065312;28;20045;-66
2022/11/10 05:21:07;;;;;;;20.23;4.38;;;9.20;99.90;;;;;;5047155;28;20044;-65
2022/11/10 05:23:39;;;;;;;21.88;5.00;;;9.30;99.90;;;;;;5046806;28;20494;-65
2022/11/10 05:26:16;;;;;;;16.58;4.57;;;9.30;99.90;;;;;;5065139;28;20766;-65
2022/11/10 05:28:44;;;;;;;18.73;4.28;;;9.30;99.90;;;;;;5046483;28;20082;-66
2022/11/10 05:31:10;;;;;;;19.83;4.28;;;9.30;99.90;;;;;;5064970;28;20525;-66
2022/11/10 05:33:37;;;;;;;25.38;5.60;;;9.30;99.90;;;;;;5064507;28;20051;-66
2022/11/10 05:36:04;;;;;;;24.73;4.25;;;9.40;99.90;;;;;;5047320;28;20052;-66
2022/11/10 05:38:30;;;;;;;21.40;4.40;;;9.30;99.90;;;;;;5065045;28;20048;-66
2022/11/10 05:40:56;;;;;;;20.60;4.72;;;9.40;99.90;;;;;;5046941;28;20555;-66
2022/11/10 05:43:22;;;;;;;21.50;4.75;;;9.40;99.90;;;;;;5050988;28;20048;-66
2022/11/10 05:45:48;;;;;;;24.35;4.50;;;9.40;99.90;;;;;;5064340;28;20048;-65
2022/11/10 05:48:14;;;;;;;23.40;5.05;;;9.40;99.90;;;;;;5064194;28;20049;-65
2022/11/10 05:50:39;;;;;;;27.67;5.28;;;9.40;99.90;;;;;;5058447;28;20049;-66
2022/11/10 05:53:05;;;;;;;23.92;5.75;;;9.40;99.90;;;;;;5065258;28;20050;-66
2022/11/10 05:55:32;;;;;;;26.38;5.85;;;9.40;99.90;;;;;;5064081;28;20040;-66
2022/11/10 05:57:58;;;;;;;22.30;4.15;;;9.40;99.90;;;;;;5065342;28;20040;-65
2022/11/10 06:00:26;;;;;;;22.98;5.45;;;9.30;99.90;;;;;;5064695;28;20714;-65
2022/11/10 06:03:04;;;;;;;31.08;6.10;;;9.40;99.90;;;;;;5063996;28;20478;-65
2022/11/10 06:05:33;;;;;;;22.35;4.82;;;9.30;99.90;;;;;;5064527;28;20071;-66
2022/11/10 06:07:59;;;;;;;22.38;5.47;;;9.40;99.90;;;;;;5062960;28;20695;-65
2022/11/10 06:10:25;;;;;;;31.92;4.25;;;9.40;99.90;;;;;;5064621;28;20048;-65
2022/11/10 06:12:51;;;;;;;25.27;5.03;;;9.30;99.90;;;;;;5059675;28;20052;-65
2022/11/10 06:15:17;;;;;;;30.13;5.00;;;9.30;99.90;;;;;;5066420;28;20048;-65
2022/11/10 06:17:43;;;;;;;20.38;4.38;;;9.30;99.90;;;;;;5067506;28;20090;-65
2022/11/10 06:20:10;;;;;;;36.53;4.78;;;9.30;99.90;;;;;;5067362;28;20113;-65
2022/11/10 06:22:36;;;;;;;27.52;4.22;;;9.40;99.90;;;;;;5067233;28;20128;-65
2022/11/10 06:25:02;;;;;;;22.15;4.88;;;9.40;99.90;;;;;;5067252;28;20090;-65
2022/11/10 06:27:28;;;;;;;20.17;4.60;;;9.40;99.90;;;;;;5066874;28;20478;-66
2022/11/10 06:29:54;;;;;;;21.27;4.40;;;9.40;99.90;;;;;;5061386;28;20036;-65
2022/11/10 06:32:19;;;;;;;20.08;4.18;;;9.40;99.90;;;;;;5059103;28;20052;-65
2022/11/10 06:34:45;;;;;;;20.92;4.25;;;9.40;99.90;;;;;;5067114;28;20047;-65
2022/11/10 06:37:11;;;;;;;24.48;4.72;;;9.40;99.90;;;;;;5049497;28;20506;-65
2022/11/10 06:39:36;;;;;;;22.08;4.53;;;9.40;99.90;;;;;;5066659;28;20049;-65
2022/11/10 06:42:03;;;;;;;28.52;4.95;;;9.40;99.90;;;;;;5032645;28;20091;-65
2022/11/10 06:44:28;;;;;;;22.00;4.38;;;9.40;99.90;;;;;;5065403;28;20478;-65
2022/11/10 06:46:54;;;;;;;29.70;4.40;;;9.40;99.90;;;;;;5040557;28;20075;-65
2022/11/10 06:49:20;;;;;;;25.85;4.35;;;9.40;99.90;;;;;;5048312;28;20049;-65
2022/11/10 06:51:46;;;;;;;31.13;4.95;;;9.40;99.90;;;;;;5060051;28;20440;-65
2022/11/10 06:54:12;;;;;;;27.10;4.35;;;9.40;99.90;;;;;;5058795;28;20055;-65
2022/11/10 06:56:38;;;;;;;31.23;4.43;;;9.40;99.90;;;;;;5058769;28;20601;-65
2022/11/10 06:59:04;;;;;;;28.75;4.28;;;9.40;99.90;;;;;;5044905;28;20044;-65
2022/11/10 07:01:30;;;;;;;19.33;4.15;;;9.50;99.90;;;;;;5051915;28;20070;-65
2022/11/10 07:03:56;;;;;;;30.52;5.30;;;9.50;99.90;;;;;;5060313;28;20063;-65
2022/11/10 07:06:21;;;;;;;26.80;4.82;;;9.50;99.90;;;;;;5040263;28;20435;-65
2022/11/10 07:08:48;;;;;;;24.77;4.93;;;9.60;99.90;;;;;;5050050;28;20044;-65
2022/11/10 07:11:14;;;;;;;22.48;4.78;;;9.60;99.90;;;;;;5033874;28;20037;-65
2022/11/10 07:13:41;;;;;;;32.13;5.07;;;9.60;99.90;;;;;;5028348;28;20037;-65
2022/11/10 07:16:08;;;;;;;36.45;4.90;;;9.60;99.90;;;;;;5048514;28;20053;-65
2022/11/10 07:18:34;;;;;;;20.20;3.80;;;9.60;99.90;;;;;;5054962;28;20041;-65
2022/11/10 07:21:06;;;;;;;22.75;4.95;;;9.60;99.90;;;;;;5047841;28;20279;-65
2022/11/10 07:23:33;;;;;;;31.30;4.95;;;9.70;99.90;;;;;;5061630;28;20105;-65
2022/11/10 07:26:00;;;;;;;26.58;5.05;;;9.70;99.90;;;;;;5052187;28;20581;-65
2022/11/10 07:28:25;;;;;;;28.30;4.88;;;9.80;99.90;;;;;;5029028;28;20056;-65
2022/11/10 07:30:51;;;;;;;29.20;4.55;;;9.80;99.90;;;;;;5051544;28;20049;-65
2022/11/10 07:33:17;;;;;;;24.38;3.97;;;9.80;99.90;;;;;;5061165;28;20033;-65
2022/11/10 07:35:43;;;;;;;28.27;4.63;;;9.90;99.90;;;;;;5045826;28;20044;-65
2022/11/10 07:38:10;;;;;;;21.42;3.70;;;9.90;99.90;;;;;;5049410;28;20049;-65
2022/11/10 07:40:37;;;;;;;32.85;4.70;;;9.90;99.90;;;;;;5064011;28;20052;-67
2022/11/10 07:43:03;;;;;;;35.05;5.75;;;10.00;99.90;;;;;;5036227;28;20414;-65
2022/11/10 07:45:30;;;;;;;38.03;6.25;;;10.00;99.90;;;;;;5066150;28;20451;-65
2022/11/10 07:48:00;;;;;;;24.73;3.92;;;10.00;99.90;;;;;;5064982;28;20489;-65
2022/11/10 07:50:26;;;;;;;;;;;10.00;99.90;;;;;;5066622;28;20060;-65
2022/11/10 07:53:00;;;;;;;26.63;5.13;;;10.10;99.90;;;;;;5065650;28;20316;-65
2022/11/10 07:55:26;;;;;;;24.05;4.43;;;10.10;99.90;;;;;;5061867;28;20563;-65
2022/11/10 07:57:57;;;;;;;24.70;4.80;;;10.10;99.90;;;;;;5065656;28;20044;-65
2022/11/10 08:00:23;;;;;;;36.85;5.32;;;10.20;99.90;;;;;;5065152;28;20036;-65
2022/11/10 08:02:49;;;;;;;20.55;3.85;;;10.20;99.90;;;;;;5065864;28;20045;-65
2022/11/10 08:05:15;;;;;;;26.60;4.60;;;10.20;99.90;;;;;;5065053;28;20048;-65
2022/11/10 08:07:41;;;;;;;24.85;5.50;;;10.30;99.90;;;;;;5066029;28;20052;-65
2022/11/10 08:10:08;;;;;;;17.13;2.85;;;10.30;99.90;;;;;;5063459;28;20177;-65
2022/11/10 08:12:34;;;;;;;26.17;4.65;;;10.30;99.90;;;;;;5063892;28;20119;-65
2022/11/10 08:14:59;;;;;;;28.88;5.50;;;10.40;99.90;;;;;;5063999;28;20112;-65
2022/11/10 08:17:25;;;;;;;27.35;5.15;;;10.40;99.90;;;;;;5064752;28;20049;-65
2022/11/10 08:19:51;;;;;;;31.35;4.82;;;10.40;99.90;;;;;;5063817;28;20428;-65
2022/11/10 08:22:17;;;;;;;23.27;4.22;;;10.40;99.90;;;;;;5065007;28;20056;-65
2022/11/10 08:24:43;;;;;;;20.65;3.63;;;10.40;99.90;;;;;;5065907;28;20047;-65
2022/11/10 08:27:08;;;;;;;25.88;5.18;;;10.40;99.90;;;;;;5063399;28;20142;-65
2022/11/10 08:29:34;;;;;;;27.98;5.38;;;10.50;99.90;;;;;;5063865;28;20036;-65
2022/11/10 08:32:00;;;;;;;26.45;4.47;;;10.50;99.90;;;;;;5063638;28;20548;-65
2022/11/10 08:34:25;;;;;;;30.25;5.47;;;10.50;99.90;;;;;;5064696;28;20422;-65
2022/11/10 08:36:52;;;;;;;27.23;4.68;;;10.50;99.90;;;;;;5063240;28;20199;-65
2022/11/10 08:39:18;;;;;;;33.88;4.30;;;10.50;99.90;;;;;;5064649;28;20041;-65
2022/11/10 08:41:44;;;;;;;24.38;5.53;;;10.50;99.90;;;;;;5047427;28;20394;-65
2022/11/10 08:44:09;;;;;;;26.02;4.28;;;10.60;99.90;;;;;;5056811;28;20387;-65
2022/11/10 08:46:35;;;;;;;25.95;5.07;;;10.70;99.90;;;;;;5065284;28;20072;-65
2022/11/10 08:49:01;;;;;;;20.48;4.88;;;10.80;99.90;;;;;;5064585;28;20046;-64
2022/11/10 08:51:26;;;;;;;23.85;4.63;;;10.90;99.90;;;;;;5063541;28;20429;-65
2022/11/10 08:53:52;;;;;;;28.38;5.22;;;11.00;99.90;;;;;;5063898;28;20432;-64
2022/11/10 08:56:18;;;;;;;23.00;4.35;;;11.00;99.90;;;;;;5062685;28;20095;-64
2022/11/10 08:58:43;;;;;;;24.90;5.18;;;11.10;99.90;;;;;;5064836;28;20051;-67
2022/11/10 09:01:10;;;;;;;25.52;4.68;;;11.10;99.90;;;;;;5063311;28;20060;-66
2022/11/10 09:03:36;;;;;;;24.40;4.75;;;11.20;99.90;;;;;;5063392;28;20262;-67
2022/11/10 09:06:02;;;;;;;18.42;3.42;;;11.20;99.90;;;;;;5062220;28;20036;-67
2022/11/10 09:08:32;;;;;;;23.08;5.05;;;11.20;99.90;;;;;;5063110;28;20517;-67
2022/11/10 09:11:03;;;;;;;21.70;4.72;;;11.20;99.90;;;;;;5062032;28;20048;-67
2022/11/10 09:13:29;;;;;;;21.33;5.05;;;11.20;99.90;;;;;;5064005;28;20398;-67
2022/11/10 09:15:55;;;;;;;19.25;4.35;;;11.30;99.90;;;;;;5056938;28;20502;-67
2022/11/10 09:18:21;;;;;;;22.83;5.40;;;11.40;99.90;;;;;;5062332;28;20486;-67
2022/11/10 09:20:47;;;;;;;21.25;4.47;;;11.50;99.90;;;;;;5061958;28;20041;-67
2022/11/10 09:23:15;;;;;;;18.35;4.85;;;11.60;99.90;;;;;;5060258;28;20156;-67
2022/11/10 09:25:47;;;;;;;24.65;5.30;;;11.60;99.90;;;;;;5062451;28;20199;-67
2022/11/10 09:28:13;;;;;;;35.30;5.78;;;11.70;99.90;;;;;;5062006;28;20127;-68
2022/11/10 09:30:40;;;;;;;25.35;4.70;;;11.80;99.90;;;;;;5059380;28;20284;-67
2022/11/10 09:33:05;;;;;;;23.48;4.40;;;11.90;99.90;;;;;;5059834;28;20557;-67
2022/11/10 09:35:31;;;;;;;21.85;5.07;;;11.90;99.90;;;;;;5061718;28;20131;-67
2022/11/10 09:37:57;;;;;;;34.25;5.13;;;12.00;99.90;;;;;;5046085;28;20531;-67
2022/11/10 09:40:43;;;;;;;24.83;5.03;;;12.10;99.90;;;;;;5063378;28;20074;-67
2022/11/10 09:43:18;;;;;;;22.52;5.05;;;12.20;99.90;;;;;;5047731;28;20179;-67
2022/11/10 09:45:47;;;;;;;26.95;5.45;;;12.30;99.90;;;;;;5064448;28;20056;-67
2022/11/10 09:48:23;;;;;;;20.60;4.55;;;12.30;99.90;;;;;;5061966;28;20487;-66
2022/11/10 09:51:01;;;;;;;24.65;4.53;;;12.30;99.90;;;;;;5067750;28;20037;-68
2022/11/10 09:53:41;;;;;;;24.50;4.57;;;12.30;99.90;;;;;;5065832;28;20037;-68
2022/11/10 09:56:15;;;;;;;17.40;4.13;;;12.30;99.90;;;;;;5056907;28;20489;-67
2022/11/10 09:58:43;;;;;;;30.23;5.90;;;12.30;99.90;;;;;;5065852;28;20044;-67
2022/11/10 10:01:21;;;;;;;20.88;4.15;;;12.30;99.90;;;;;;5063118;28;20047;-68
2022/11/10 10:03:59;;;;;;;20.98;3.75;;;12.40;99.90;;;;;;5047846;28;20125;-67
2022/11/10 10:06:25;;;;;;;25.42;3.70;;;12.50;99.90;;;;;;5063420;28;20048;-67
2022/11/10 10:08:57;;;;;;;25.67;4.85;;;12.50;99.90;;;;;;5065748;28;20395;-68
2022/11/10 10:11:52;;;;;;;31.40;5.22;;;12.60;99.90;;;;;;5064004;28;20061;-69
2022/11/10 10:14:37;;;;;;;21.10;4.10;;;12.70;99.90;;;;;;5064438;28;20044;-69
2022/11/10 10:17:26;;;;;;;20.42;4.20;;;12.80;99.90;;;;;;5063931;28;20068;-69
2022/11/10 10:20:18;;;;;;;25.25;4.00;;;12.80;99.90;;;;;;5057673;28;20040;-68
2022/11/10 10:23:06;;;;;;;21.15;3.58;;;12.90;99.90;;;;;;5060421;28;20041;-68
2022/11/10 10:25:32;;;;;;;19.23;3.90;;;12.90;99.90;;;;;;5067443;28;20045;-68
2022/11/10 10:28:12;;;;;;;28.17;4.68;;;13.00;99.90;;;;;;5065456;28;20082;-68
2022/11/10 10:30:42;;;;;;;22.00;4.50;;;13.10;99.90;;;;;;5067140;28;20059;-68
2022/11/10 10:33:20;;;;;;;19.75;2.92;;;13.10;99.90;;;;;;5066299;28;20041;-68
2022/11/10 10:35:49;;;;;;;13.05;3.58;;;13.10;99.90;;;;;;5065032;28;20130;-68
2022/11/10 10:38:21;;;;;;;20.10;3.27;;;13.00;99.90;;;;;;5061521;28;20497;-68
2022/11/10 10:40:49;;;;;;;21.10;3.72;;;13.00;99.90;;;;;;5065069;28;20447;-68
2022/11/10 10:43:16;;;;;;;37.67;5.20;;;13.00;99.90;;;;;;5062171;28;20053;-68
2022/11/10 10:45:41;;;;;;;22.83;4.13;;;13.10;99.90;;;;;;5025041;28;20055;-68
2022/11/10 10:48:29;;;;;;;20.35;4.05;;;13.10;99.90;;;;;;5018332;28;20056;-68
2022/11/10 10:50:54;;;;;;;16.80;4.53;;;13.20;99.90;;;;;;5046806;28;20078;-68
2022/11/10 10:53:24;;;;;;;20.73;4.05;;;13.20;99.90;;;;;;5002549;28;20041;-68
2022/11/10 10:55:58;;;;;;;18.50;3.58;;;13.10;99.90;;;;;;5026553;28;20536;-68
2022/11/10 10:58:33;;;;;;;16.23;2.92;;;13.20;99.90;;;;;;5027250;28;20048;-68
2022/11/10 11:01:14;;;;;;;18.55;3.00;;;13.30;99.90;;;;;;5043440;28;20087;-69
2022/11/10 11:03:49;;;;;;;23.08;3.63;;;13.40;99.90;;;;;;5060773;28;20041;-69
2022/11/10 11:06:17;;;;;;;25.00;3.77;;;13.40;99.90;;;;;;5047146;28;20091;-68
2022/11/10 11:09:16;;;;;;;23.13;3.35;;;13.40;99.90;;;;;;5048224;28;20121;-68
2022/11/10 11:11:57;;;;;;;31.55;4.82;;;13.60;99.90;;;;;;5038288;28;20044;-68
2022/11/10 11:14:30;;;;;;;21.00;3.38;;;13.60;99.90;;;;;;5065234;28;20051;-68
2022/11/10 11:16:55;;;;;;;23.35;3.70;;;13.80;99.90;;;;;;5055442;28;20083;-68
2022/11/10 11:19:32;;;;;;;20.90;3.83;;;13.90;99.90;;;;;;5064545;28;20068;-68
2022/11/10 11:22:28;;;;;;;17.65;3.72;;;13.90;99.90;;;;;;5059109;28;20045;-69
2022/11/10 11:25:07;;;;;;;23.92;4.03;;;13.90;99.90;;;;;;5047200;28;20040;-68
2022/11/10 11:27:48;;;;;;;22.60;4.85;;;14.00;99.90;;;;;;5045665;28;20516;-68
2022/11/10 11:30:51;;;;;;;30.50;4.45;;;14.10;99.90;;;;;;5040030;28;20138;-69
2022/11/10 11:33:34;;;;;;;20.15;4.38;;;14.20;99.90;;;;;;5035640;28;20099;-69
2022/11/10 11:36:37;;;;;;;22.98;3.88;;;14.20;99.90;;;;;;5052540;28;20465;-65
2022/11/10 11:39:29;;;;;;;30.40;5.40;;;14.20;99.90;;;;;;5043752;28;20506;-66
2022/11/10 11:42:20;;;;;;;22.05;4.20;;;14.30;99.90;;;;;;5054857;28;20049;-65
2022/11/10 11:45:14;;;;;;;26.33;5.85;;;14.20;99.90;;;;;;4960115;28;20051;-66
2022/11/10 11:47:43;;;;;;;33.92;5.13;;;14.10;99.90;;;;;;5023276;28;20049;-65
2022/11/10 11:50:15;;;;;;;25.33;5.22;;;14.10;99.90;;;;;;5042890;28;20080;-65
2022/11/10 11:53:12;;;;;;;24.40;4.85;;;14.00;99.90;;;;;;5043661;28;20555;-65
2022/11/10 11:56:02;;;;;;;25.85;4.75;;;14.00;99.90;;;;;;5044567;28;20059;-65
2022/11/10 11:58:44;;;;;;;20.73;4.90;;;14.00;99.90;;;;;;5036160;28;20037;-66
2022/11/10 12:01:16;;;;;;;19.88;4.60;;;14.10;99.90;;;;;;5054598;28;20040;-66
2022/11/10 12:04:19;;;;;;;19.95;4.78;;;14.00;99.90;;;;;;5057779;28;20119;-65
2022/11/10 12:07:22;;;;;;;17.48;3.17;;;14.00;99.90;;;;;;5053509;28;20041;-65
2022/11/10 12:10:16;;;;;;;18.05;3.33;;;14.00;99.90;;;;;;5055319;28;20426;-65
2022/11/10 12:13:00;;;;;;;18.80;3.28;;;14.10;99.90;;;;;;5060214;28;20135;-66
2022/11/10 12:15:48;;;;;;;13.13;3.47;;;14.10;99.90;;;;;;5062325;28;20044;-65
2022/11/10 12:18:44;;;;;;;20.05;3.53;;;14.10;99.90;;;;;;5050589;28;20048;-66
2022/11/10 12:21:35;;;;;;;21.25;3.35;;;14.10;99.90;;;;;;5058999;28;20063;-66
2022/11/10 12:24:15;;;;;;;25.80;3.33;;;14.10;99.90;;;;;;5054335;28;20044;-66
2022/11/10 12:26:57;;;;;;;21.92;3.33;;;14.20;99.90;;;;;;5063967;28;20071;-66
2022/11/10 12:29:49;;;;;;;19.20;3.10;;;14.20;99.90;;;;;;5058773;28;20428;-66
2022/11/10 12:35:05;;;;;;;23.42;3.25;;;14.20;99.90;;;;;;5057953;22;20090;-66
2022/11/10 12:38:08;;;;;;;16.38;2.25;;;14.20;99.90;;;;;;5063572;28;20037;-66
2022/11/10 12:41:08;;;;;;;17.80;3.40;;;14.20;99.90;;;;;;5062612;28;20091;-66
2022/11/10 12:43:52;;;;;;;26.98;3.35;;;14.20;99.90;;;;;;5064989;28;20052;-66
2022/11/10 12:46:18;;;;;;;13.25;2.67;;;14.20;99.90;;;;;;5061947;28;20062;-66
2022/11/10 12:49:23;;;;;;;20.75;3.33;;;14.10;99.90;;;;;;5062662;28;20040;-66
2022/11/10 12:51:59;;;;;;;21.00;3.42;;;14.10;99.90;;;;;;5055163;28;20048;-66
2022/11/10 12:55:03;;;;;;;18.02;2.20;;;14.10;99.90;;;;;;5045347;28;20044;-65
2022/11/10 12:57:32;;;;;;;23.92;2.67;;;14.10;99.90;;;;;;5044362;28;20466;-66
2022/11/10 13:00:05;;;;;;;19.33;3.17;;;14.00;99.90;;;;;;5045507;28;20106;-66
2022/11/10 13:02:33;;;;;;;19.98;3.35;;;13.90;99.90;;;;;;5046711;28;20126;-66
2022/11/10 13:05:36;;;;;;;20.05;3.35;;;13.90;99.90;;;;;;5046338;28;20044;-66
2022/11/10 13:08:15;;;;;;;24.45;3.35;;;13.80;99.90;;;;;;5044340;28;20603;-66
2022/11/10 13:10:59;;;;;;;24.42;4.30;;;13.80;99.90;;;;;;5059882;28;20067;-66
2022/11/10 13:13:26;;;;;;;15.35;2.95;;;13.80;99.90;;;;;;5060473;28;20056;-66
2022/11/10 13:16:43;;;;;;;25.77;3.35;;;13.80;99.90;;;;;;5062393;28;20064;-66